createdAt,value
2022-11-06T00:02:05.080Z,17.17
2022-11-06T00:04:32.676Z,17.25
2022-11-06T00:06:59.670Z,17.20
2022-11-06T00:09:26.672Z,17.30
2022-11-06T00:11:53.711Z,17.23
2022-11-06T00:14:20.781Z,17.33
2022-11-06T00:16:48.099Z,17.01
2022-11-06T00:19:16.201Z,17.21
2022-11-06T00:21:44.141Z,17.17
2022-11-06T00:24:13.854Z,17.25
2022-11-06T00:26:41.413Z,17.17
2022-11-06T00:29:14.705Z,17.30
2022-11-06T00:31:42.346Z,16.95
2022-11-06T00:34:10.708Z,17.14
2022-11-06T00:36:37.788Z,16.98
2022-11-06T00:39:06.117Z,16.88
2022-11-06T00:41:33.090Z,16.84
2022-11-06T00:44:02.417Z,17.16
2022-11-06T00:46:30.087Z,16.89
2022-11-06T00:48:57.652Z,16.95
2022-11-06T00:51:29.114Z,17.13
2022-11-06T00:54:02.376Z,17.19
2022-11-06T00:56:30.925Z,17.10
2022-11-06T00:59:04.363Z,17.12
2022-11-06T01:01:35.615Z,17.14
2022-11-06T01:04:12.283Z,17.13
2022-11-06T01:06:43.016Z,17.18
2022-11-06T01:09:14.292Z,17.15
2022-11-06T01:14:32.935Z,17.20
2022-11-06T01:17:00.052Z,16.82
2022-11-06T01:19:27.124Z,16.68
2022-11-06T01:21:54.392Z,16.73
2022-11-06T01:24:26.504Z,16.88
2022-11-06T01:27:24.242Z,16.98
2022-11-06T01:29:40.836Z,16.60
2022-11-06T01:32:08.075Z,16.57
2022-11-06T01:34:35.463Z,16.66
2022-11-06T01:37:02.583Z,16.56
2022-11-06T01:39:31.141Z,16.76
2022-11-06T01:41:58.401Z,16.48
2022-11-06T01:44:43.824Z,16.90
2022-11-06T01:47:28.851Z,17.02
2022-11-06T01:50:02.510Z,16.78
2022-11-06T01:52:33.167Z,16.78
2022-11-06T01:55:19.674Z,16.87
2022-11-06T01:57:48.503Z,16.81
2022-11-06T02:00:16.009Z,16.58
2022-11-06T02:02:43.428Z,16.44
2022-11-06T02:05:10.814Z,16.42
2022-11-06T02:07:39.324Z,16.59
2022-11-06T02:10:06.856Z,16.45
2022-11-06T02:13:06.913Z,16.67
2022-11-06T02:15:40.302Z,16.61
2022-11-06T02:18:33.762Z,16.56
2022-11-06T02:21:38.129Z,16.67
2022-11-06T02:24:43.838Z,16.59
2022-11-06T02:27:22.870Z,16.53
2022-11-06T02:30:11.298Z,16.46
2022-11-06T02:33:02.550Z,16.46
2022-11-06T02:35:35.653Z,16.36
2022-11-06T02:38:18.334Z,16.51
2022-11-06T02:40:52.358Z,16.29
2022-11-06T02:43:24.002Z,16.29
2022-11-06T02:46:30.790Z,16.55
2022-11-06T02:49:05.618Z,16.36
2022-11-06T02:51:37.867Z,16.17
2022-11-06T02:54:05.825Z,16.38
2022-11-06T02:56:39.616Z,16.25
2022-11-06T02:59:23.947Z,16.17
2022-11-06T03:01:57.662Z,16.24
2022-11-06T03:04:48.660Z,16.30
2022-11-06T03:07:31.501Z,16.23
2022-11-06T03:09:58.859Z,16.00
2022-11-06T03:12:33.829Z,16.23
2022-11-06T03:15:33.420Z,16.29
2022-11-06T03:18:28.031Z,16.23
2022-11-06T03:21:06.613Z,15.94
2022-11-06T03:23:48.497Z,16.10
2022-11-06T03:26:30.218Z,16.17
2022-11-06T03:29:04.030Z,16.21
2022-11-06T03:31:39.840Z,16.16
2022-11-06T03:34:21.512Z,16.04
2022-11-06T03:36:59.633Z,16.10
2022-11-06T03:39:33.199Z,15.95
2022-11-06T03:42:06.820Z,15.84
2022-11-06T03:44:39.506Z,15.81
2022-11-06T03:47:38.213Z,16.01
2022-11-06T03:50:26.690Z,15.98
2022-11-06T03:53:09.636Z,15.96
2022-11-06T03:55:45.490Z,15.85
2022-11-06T03:58:19.406Z,15.93
2022-11-06T04:00:47.370Z,15.58
2022-11-06T04:03:23.263Z,15.78
2022-11-06T04:06:05.027Z,15.94
2022-11-06T04:08:51.824Z,15.67
2022-11-06T04:11:41.441Z,15.90
2022-11-06T04:14:09.431Z,15.56
2022-11-06T04:16:39.421Z,15.83
2022-11-06T04:19:19.785Z,15.92
2022-11-06T04:22:30.636Z,15.98
2022-11-06T04:25:58.416Z,15.92
2022-11-06T04:29:13.485Z,15.95
2022-11-06T04:32:12.153Z,15.72
2022-11-06T04:35:04.445Z,15.77
2022-11-06T04:37:44.666Z,15.64
2022-11-06T04:40:25.463Z,15.72
2022-11-06T04:43:23.298Z,15.64
2022-11-06T04:45:53.754Z,15.55
2022-11-06T04:48:22.971Z,15.52
2022-11-06T04:50:55.680Z,15.62
2022-11-06T04:53:24.126Z,15.41
2022-11-06T04:56:01.691Z,15.60
2022-11-06T04:58:28.654Z,15.23
2022-11-06T05:00:55.689Z,15.26
2022-11-06T05:03:22.698Z,15.38
2022-11-06T05:05:49.768Z,15.26
2022-11-06T05:08:19.849Z,15.52
2022-11-06T05:10:47.976Z,15.47
2022-11-06T05:13:15.903Z,15.41
2022-11-06T05:15:43.090Z,15.25
2022-11-06T05:18:10.398Z,15.24
2022-11-06T05:20:37.713Z,15.22
2022-11-06T05:23:05.176Z,15.16
2022-11-06T05:25:38.316Z,15.29
2022-11-06T05:28:08.081Z,15.23
2022-11-06T05:30:37.385Z,15.34
2022-11-06T05:33:04.809Z,15.28
2022-11-06T05:35:32.572Z,15.26
2022-11-06T05:38:01.943Z,15.25
2022-11-06T05:40:29.545Z,15.26
2022-11-06T05:42:56.516Z,15.16
2022-11-06T05:45:23.479Z,15.16
2022-11-06T05:47:50.481Z,15.16
2022-11-06T05:50:17.504Z,15.14
2022-11-06T05:52:44.565Z,15.09
2022-11-06T05:55:14.679Z,15.03
2022-11-06T05:57:42.933Z,15.07
2022-11-06T06:00:11.751Z,15.65
2022-11-06T06:02:43.161Z,15.60
2022-11-06T06:05:10.740Z,15.45
2022-11-06T06:07:37.745Z,15.05
2022-11-06T06:10:05.814Z,15.14
2022-11-06T06:12:32.925Z,14.95
2022-11-06T06:15:00.294Z,15.08
2022-11-06T06:17:27.516Z,14.96
2022-11-06T06:19:54.930Z,14.91
2022-11-06T06:22:22.521Z,14.83
2022-11-06T06:24:49.919Z,14.95
2022-11-06T06:27:17.305Z,14.80
2022-11-06T06:29:44.686Z,14.90
2022-11-06T06:32:11.696Z,14.75
2022-11-06T06:34:39.366Z,14.85
2022-11-06T06:37:06.782Z,14.84
2022-11-06T06:39:34.153Z,14.70
2022-11-06T06:42:01.172Z,14.47
2022-11-06T06:44:29.034Z,14.63
2022-11-06T06:46:56.488Z,14.63
2022-11-06T06:49:23.495Z,14.58
2022-11-06T06:51:50.732Z,14.73
2022-11-06T06:54:18.138Z,14.85
2022-11-06T06:56:45.544Z,14.74
2022-11-06T06:59:12.925Z,14.70
2022-11-06T07:01:39.998Z,14.63
2022-11-06T07:04:08.784Z,14.82
2022-11-06T07:06:35.800Z,14.60
2022-11-06T07:09:03.283Z,14.87
2022-11-06T07:11:30.470Z,14.80
2022-11-06T07:14:01.068Z,14.78
2022-11-06T07:16:29.977Z,14.80
2022-11-06T07:18:57.709Z,14.72
2022-11-06T07:21:25.236Z,14.80
2022-11-06T07:23:52.594Z,14.85
2022-11-06T07:26:20.070Z,14.86
2022-11-06T07:28:50.201Z,14.67
2022-11-06T07:31:18.003Z,14.78
2022-11-06T07:33:45.490Z,14.84
2022-11-06T07:36:13.749Z,14.85
2022-11-06T07:38:42.970Z,15.11
2022-11-06T07:41:15.884Z,14.91
2022-11-06T07:43:43.855Z,14.67
2022-11-06T07:46:13.459Z,15.01
2022-11-06T07:48:41.013Z,14.80
2022-11-06T07:51:11.239Z,15.05
2022-11-06T07:53:38.885Z,14.86
2022-11-06T07:56:06.476Z,14.95
2022-11-06T07:58:34.431Z,14.77
2022-11-06T08:01:02.548Z,14.79
2022-11-06T08:03:30.275Z,14.64
2022-11-06T08:05:58.883Z,14.91
2022-11-06T08:08:27.344Z,14.87
2022-11-06T08:10:55.109Z,14.63
2022-11-06T08:13:22.390Z,14.78
2022-11-06T08:15:49.915Z,14.80
2022-11-06T08:18:17.412Z,14.36
2022-11-06T08:20:45.059Z,14.77
2022-11-06T08:23:13.581Z,14.75
2022-11-06T08:25:40.919Z,14.52
2022-11-06T08:28:09.194Z,14.73
2022-11-06T08:30:36.657Z,15.13
2022-11-06T08:33:07.528Z,15.19
2022-11-06T08:35:35.607Z,14.54
2022-11-06T08:38:03.122Z,14.59
2022-11-06T08:40:31.463Z,14.33
2022-11-06T08:43:04.203Z,14.71
2022-11-06T08:45:32.189Z,15.08
2022-11-06T08:48:04.061Z,15.38
2022-11-06T08:50:32.669Z,15.36
2022-11-06T08:53:04.361Z,15.14
2022-11-06T08:55:32.685Z,15.65
2022-11-06T08:58:01.031Z,15.53
2022-11-06T09:00:28.775Z,15.23
2022-11-06T09:03:14.156Z,15.85
2022-11-06T09:05:43.125Z,16.03
2022-11-06T09:08:11.502Z,15.69
2022-11-06T09:10:40.266Z,15.52
2022-11-06T09:13:08.076Z,15.27
2022-11-06T09:15:36.125Z,15.47
2022-11-06T09:18:03.587Z,15.19
2022-11-06T09:21:12.941Z,15.75
2022-11-06T09:23:46.003Z,15.87
2022-11-06T09:26:13.413Z,15.69
2022-11-06T09:28:41.073Z,15.11
2022-11-06T09:31:08.351Z,15.20
2022-11-06T09:33:36.128Z,15.30
2022-11-06T09:36:08.223Z,15.85
2022-11-06T09:38:35.268Z,15.62
2022-11-06T09:41:03.659Z,16.02
2022-11-06T09:44:08.508Z,16.15
2022-11-06T09:46:46.106Z,16.36
2022-11-06T09:49:48.668Z,16.92
2022-11-06T09:52:33.256Z,16.83
2022-11-06T09:55:23.595Z,17.03
2022-11-06T09:58:20.309Z,17.11
2022-11-06T10:00:53.632Z,17.42
2022-11-06T10:03:41.137Z,17.08
2022-11-06T10:06:08.895Z,17.28
2022-11-06T10:08:36.809Z,17.06
2022-11-06T10:11:26.258Z,16.91
2022-11-06T10:13:54.462Z,17.00
2022-11-06T10:17:03.325Z,16.76
2022-11-06T10:19:56.908Z,17.36
2022-11-06T10:22:40.355Z,16.79
2022-11-06T10:25:24.237Z,17.66
2022-11-06T10:28:04.536Z,16.93
2022-11-06T10:30:58.654Z,16.80
2022-11-06T10:33:32.795Z,16.29
2022-11-06T10:36:08.259Z,15.87
2022-11-06T10:38:39.188Z,16.64
2022-11-06T10:41:10.912Z,16.34
2022-11-06T10:43:57.827Z,16.91
2022-11-06T10:46:32.315Z,17.24
2022-11-06T10:49:03.400Z,16.46
2022-11-06T10:51:44.650Z,16.89
2022-11-06T10:55:11.936Z,17.47
2022-11-06T10:58:19.007Z,17.29
2022-11-06T11:00:46.471Z,17.25
2022-11-06T11:03:28.287Z,17.20
2022-11-06T11:05:55.749Z,16.63
2022-11-06T11:08:37.656Z,17.32
2022-11-06T11:11:18.012Z,16.94
2022-11-06T11:13:49.036Z,17.14
2022-11-06T11:16:21.589Z,16.42
2022-11-06T11:18:50.656Z,18.05
2022-11-06T11:21:25.887Z,20.24
2022-11-06T11:24:10.561Z,22.06
2022-11-06T11:27:02.524Z,23.02
2022-11-06T11:29:32.600Z,22.82
2022-11-06T11:32:05.230Z,21.92
2022-11-06T11:34:36.769Z,23.79
2022-11-06T11:37:06.471Z,23.38
2022-11-06T11:39:44.271Z,23.72
2022-11-06T11:42:27.677Z,24.98
2022-11-06T11:45:09.859Z,25.85
2022-11-06T11:47:42.319Z,23.52
2022-11-06T11:50:27.051Z,23.78
2022-11-06T11:53:20.028Z,20.92
2022-11-06T11:55:50.786Z,19.89
2022-11-06T11:58:24.777Z,21.05
2022-11-06T12:01:04.860Z,22.26
2022-11-06T12:03:40.077Z,22.95
2022-11-06T12:06:14.383Z,25.53
2022-11-06T12:08:49.257Z,27.41
2022-11-06T12:11:23.483Z,27.91
2022-11-06T12:14:23.676Z,25.22
2022-11-06T12:16:55.094Z,24.95
2022-11-06T12:19:26.231Z,25.93
2022-11-06T12:22:00.290Z,27.21
2022-11-06T12:24:52.183Z,24.30
2022-11-06T12:27:32.966Z,25.65
2022-11-06T12:30:10.665Z,27.41
2022-11-06T12:33:00.224Z,28.58
2022-11-06T12:35:42.507Z,29.08
2022-11-06T12:38:19.415Z,28.54
2022-11-06T12:40:57.464Z,27.88
2022-11-06T12:43:46.404Z,27.05
2022-11-06T12:46:59.479Z,24.03
2022-11-06T12:49:36.039Z,23.44
2022-11-06T12:52:18.184Z,21.87
2022-11-06T12:55:59.599Z,21.30
2022-11-06T12:58:46.879Z,21.10
2022-11-06T13:01:43.219Z,20.20
2022-11-06T13:04:26.438Z,19.69
2022-11-06T13:07:20.417Z,19.10
2022-11-06T13:10:24.549Z,19.27
2022-11-06T13:13:30.709Z,19.87
2022-11-06T13:16:21.163Z,19.06
2022-11-06T13:19:19.605Z,19.12
2022-11-06T13:22:09.899Z,19.17
2022-11-06T13:24:54.626Z,18.03
2022-11-06T13:27:50.865Z,18.46
2022-11-06T13:30:21.354Z,18.05
2022-11-06T13:33:15.943Z,18.21
2022-11-06T13:35:45.425Z,18.23
2022-11-06T13:38:27.048Z,18.30
2022-11-06T13:41:04.028Z,18.90
2022-11-06T13:43:39.340Z,18.50
2022-11-06T13:46:38.135Z,18.82
2022-11-06T13:49:14.232Z,18.77
2022-11-06T13:51:59.023Z,19.14
2022-11-06T13:55:12.364Z,18.66
2022-11-06T13:58:04.321Z,18.68
2022-11-06T14:00:45.507Z,18.53
2022-11-06T14:03:37.222Z,19.48
2022-11-06T14:06:20.744Z,19.55
2022-11-06T14:09:00.888Z,18.87
2022-11-06T14:11:34.937Z,18.99
2022-11-06T14:14:04.637Z,18.56
2022-11-06T14:16:37.909Z,18.79
2022-11-06T14:19:06.754Z,18.98
2022-11-06T14:21:36.698Z,19.35
2022-11-06T14:24:30.757Z,18.38
2022-11-06T14:26:58.729Z,18.86
2022-11-06T14:29:28.692Z,18.86
2022-11-06T14:32:21.445Z,18.88
2022-11-06T14:34:48.767Z,18.18
2022-11-06T14:37:18.576Z,19.10
2022-11-06T14:39:51.348Z,19.23
2022-11-06T14:42:27.265Z,19.00
2022-11-06T14:45:11.957Z,19.17
2022-11-06T14:47:49.513Z,18.30
2022-11-06T14:50:19.078Z,18.69
2022-11-06T14:52:57.582Z,18.98
2022-11-06T14:55:41.528Z,18.18
2022-11-06T14:58:24.126Z,18.48
2022-11-06T15:01:10.602Z,18.54
2022-11-06T15:03:57.689Z,18.64
2022-11-06T15:06:33.791Z,18.44
2022-11-06T15:09:11.944Z,18.45
2022-11-06T15:11:47.928Z,17.53
2022-11-06T15:14:15.044Z,18.15
2022-11-06T15:16:52.116Z,18.37
2022-11-06T15:19:28.182Z,17.95
2022-11-06T15:22:15.784Z,18.20
2022-11-06T15:25:00.538Z,18.63
2022-11-06T15:27:38.980Z,18.82
2022-11-06T15:30:17.188Z,18.79
2022-11-06T15:32:46.807Z,17.98
2022-11-06T15:35:22.818Z,18.77
2022-11-06T15:38:06.204Z,18.98
2022-11-06T15:40:36.081Z,18.75
2022-11-06T15:43:29.031Z,18.58
2022-11-06T15:46:29.410Z,17.91
2022-11-06T15:49:18.128Z,18.40
2022-11-06T15:51:59.849Z,18.04
2022-11-06T15:54:40.716Z,18.36
2022-11-06T15:57:22.155Z,18.29
2022-11-06T16:00:12.645Z,18.36
2022-11-06T16:03:03.628Z,17.99
2022-11-06T16:05:34.966Z,18.00
2022-11-06T16:08:03.567Z,18.13
2022-11-06T16:10:30.555Z,17.81
2022-11-06T16:12:57.783Z,17.81
2022-11-06T16:15:45.537Z,18.37
2022-11-06T16:18:44.011Z,18.25
2022-11-06T16:21:21.579Z,18.49
2022-11-06T16:24:04.863Z,18.21
2022-11-06T16:26:35.600Z,17.87
2022-11-06T16:29:19.842Z,18.00
2022-11-06T16:31:48.447Z,17.50
2022-11-06T16:34:30.533Z,17.40
2022-11-06T16:37:29.801Z,18.01
2022-11-06T16:39:59.405Z,17.41
2022-11-06T16:42:35.914Z,18.19
2022-11-06T16:45:16.879Z,18.23
2022-11-06T16:48:06.788Z,18.46
2022-11-06T16:50:52.758Z,18.48
2022-11-06T16:53:27.984Z,18.27
2022-11-06T16:56:08.029Z,18.59
2022-11-06T16:58:57.244Z,18.45
2022-11-06T17:01:26.844Z,18.21
2022-11-06T17:04:02.088Z,18.03
2022-11-06T17:06:35.646Z,18.12
2022-11-06T17:09:22.680Z,18.46
2022-11-06T17:11:54.986Z,18.42
2022-11-06T17:14:23.665Z,17.92
2022-11-06T17:17:00.263Z,18.10
2022-11-06T17:19:29.735Z,18.07
2022-11-06T17:22:00.071Z,18.09
2022-11-06T17:24:42.898Z,17.84
2022-11-06T17:27:10.877Z,18.17
2022-11-06T17:29:38.909Z,18.02
2022-11-06T17:32:06.585Z,17.54
2022-11-06T17:34:34.452Z,17.87
2022-11-06T17:37:02.193Z,17.59
2022-11-06T17:39:30.249Z,17.61
2022-11-06T17:41:57.831Z,17.98
2022-11-06T17:44:25.563Z,17.82
2022-11-06T17:46:53.256Z,17.96
2022-11-06T17:49:21.072Z,18.29
2022-11-06T17:52:01.448Z,18.57
2022-11-06T17:54:36.471Z,18.61
2022-11-06T17:57:07.254Z,18.71
2022-11-06T17:59:35.721Z,18.17
2022-11-06T18:02:03.447Z,18.11
2022-11-06T18:04:31.514Z,18.54
2022-11-06T18:06:59.691Z,18.47
2022-11-06T18:09:27.447Z,18.30
2022-11-06T18:11:55.972Z,18.05
2022-11-06T18:14:25.611Z,18.34
2022-11-06T18:16:53.577Z,17.83
2022-11-06T18:19:23.777Z,18.50
2022-11-06T18:21:52.153Z,17.71
2022-11-06T18:24:19.817Z,17.46
2022-11-06T18:26:48.076Z,17.64
2022-11-06T18:29:20.106Z,18.12
2022-11-06T18:31:50.628Z,17.87
2022-11-06T18:34:21.340Z,17.41
2022-11-06T18:36:50.668Z,17.80
2022-11-06T18:39:19.284Z,17.37
2022-11-06T18:41:47.100Z,17.39
2022-11-06T18:44:17.406Z,18.13
2022-11-06T18:46:47.036Z,18.20
2022-11-06T18:49:14.867Z,17.52
2022-11-06T18:51:42.687Z,17.23
2022-11-06T18:54:11.945Z,17.39
2022-11-06T18:56:39.658Z,18.09
2022-11-06T18:59:16.183Z,18.21
2022-11-06T19:01:44.027Z,18.13
2022-11-06T19:04:11.846Z,18.05
2022-11-06T19:06:40.179Z,17.64
2022-11-06T19:09:09.079Z,17.40
2022-11-06T19:11:36.593Z,17.22
2022-11-06T19:14:04.148Z,17.39
2022-11-06T19:16:31.293Z,17.87
2022-11-06T19:21:29.943Z,17.82
2022-11-06T19:24:05.560Z,17.98
2022-11-06T19:26:35.316Z,18.48
2022-11-06T19:29:03.721Z,17.99
2022-11-06T19:31:33.063Z,18.27
2022-11-06T19:34:02.461Z,18.16
2022-11-06T19:36:30.961Z,18.21
2022-11-06T19:38:59.652Z,18.49
2022-11-06T19:41:28.392Z,18.73
2022-11-06T19:43:56.275Z,18.39
2022-11-06T19:46:28.451Z,18.17
2022-11-06T19:48:57.302Z,18.27
2022-11-06T19:51:25.904Z,17.94
2022-11-06T19:53:57.307Z,18.08
2022-11-06T19:56:25.812Z,18.26
2022-11-06T19:58:53.575Z,18.23
2022-11-06T20:01:21.789Z,18.29
2022-11-06T20:03:49.628Z,18.43
2022-11-06T20:06:17.749Z,18.58
2022-11-06T20:08:50.253Z,18.71
2022-11-06T20:11:18.642Z,18.38
2022-11-06T20:13:46.789Z,18.09
2022-11-06T20:16:19.869Z,17.84
2022-11-06T20:18:59.333Z,17.81
2022-11-06T20:21:28.735Z,18.23
2022-11-06T20:23:57.317Z,17.85
2022-11-06T20:26:25.730Z,18.07
2022-11-06T20:28:53.527Z,17.86
2022-11-06T20:31:21.881Z,17.96
2022-11-06T20:33:50.508Z,17.40
2022-11-06T20:36:19.407Z,17.22
2022-11-06T20:38:47.373Z,18.25
2022-11-06T20:41:15.102Z,17.97
2022-11-06T20:43:43.106Z,17.98
2022-11-06T20:46:13.028Z,17.52
2022-11-06T20:48:43.012Z,17.58
2022-11-06T20:51:17.698Z,17.46
2022-11-06T20:53:46.403Z,17.95
2022-11-06T20:56:20.567Z,18.41
2022-11-06T20:58:48.738Z,17.97
2022-11-06T21:01:21.102Z,17.95
2022-11-06T21:03:50.026Z,17.88
2022-11-06T21:06:21.564Z,18.72
2022-11-06T21:08:53.481Z,18.26
2022-11-06T21:11:25.456Z,18.80
2022-11-06T21:13:54.748Z,18.52
2022-11-06T21:16:29.407Z,18.18
2022-11-06T21:19:00.117Z,17.84
2022-11-06T21:21:33.152Z,17.65
2022-11-06T21:24:02.170Z,18.51
2022-11-06T21:26:34.272Z,18.20
2022-11-06T21:29:03.529Z,18.58
2022-11-06T21:31:34.875Z,18.03
2022-11-06T21:34:04.206Z,17.79
2022-11-06T21:36:35.446Z,17.79
2022-11-06T21:39:10.064Z,17.93
2022-11-06T21:41:38.631Z,16.95
2022-11-06T21:44:07.762Z,17.45
2022-11-06T21:46:35.532Z,17.35
2022-11-06T21:49:04.331Z,17.72
2022-11-06T21:51:34.245Z,17.82
2022-11-06T21:54:24.131Z,17.78
2022-11-06T21:56:53.590Z,18.14
2022-11-06T21:59:26.738Z,17.05
2022-11-06T22:01:55.035Z,17.39
2022-11-06T22:04:23.464Z,17.80
2022-11-06T22:06:52.617Z,18.09
2022-11-06T22:09:25.313Z,18.18
2022-11-06T22:11:54.500Z,17.79
2022-11-06T22:14:23.981Z,18.62
2022-11-06T22:16:53.453Z,19.13
2022-11-06T22:19:24.315Z,17.92
2022-11-06T22:21:54.950Z,18.03
2022-11-06T22:24:22.844Z,17.97
2022-11-06T22:26:50.783Z,18.41
2022-11-06T22:29:18.651Z,17.71
2022-11-06T22:31:49.798Z,18.12
2022-11-06T22:34:18.128Z,18.51
2022-11-06T22:36:47.911Z,18.33
2022-11-06T22:39:18.057Z,18.09
2022-11-06T22:41:46.566Z,18.17
2022-11-06T22:44:16.632Z,18.34
2022-11-06T22:46:46.584Z,18.42
2022-11-06T22:49:20.148Z,18.32
2022-11-06T22:51:49.808Z,18.16
2022-11-06T22:54:19.986Z,18.39
2022-11-06T22:56:49.274Z,17.43
2022-11-06T22:59:17.328Z,18.29
2022-11-06T23:01:46.150Z,18.47
2022-11-06T23:04:15.521Z,17.18
2022-11-06T23:06:47.002Z,18.06
2022-11-06T23:09:15.104Z,17.75
2022-11-06T23:11:44.516Z,17.82
2022-11-06T23:14:11.873Z,17.84
2022-11-06T23:16:58.210Z,18.80
2022-11-06T23:19:32.371Z,18.72
2022-11-06T23:22:19.321Z,17.55
2022-11-06T23:24:47.359Z,18.51
2022-11-06T23:27:16.427Z,18.40
2022-11-06T23:29:51.637Z,18.88
2022-11-06T23:32:23.522Z,18.41
2022-11-06T23:34:54.328Z,18.54
2022-11-06T23:37:33.715Z,18.53
2022-11-06T23:40:27.277Z,18.26
2022-11-06T23:43:05.242Z,19.05
2022-11-06T23:45:56.922Z,18.56
2022-11-06T23:48:41.748Z,18.80
2022-11-06T23:51:15.501Z,18.83
2022-11-06T23:53:51.251Z,19.01
2022-11-06T23:56:25.246Z,18.58
2022-11-06T23:58:57.432Z,18.90
